createdAt,value
2018-09-09T00:00:48.295Z,17.10
2018-09-09T00:03:22.664Z,17.10
2018-09-09T00:05:56.941Z,17.10
2018-09-09T00:08:31.266Z,17.10
2018-09-09T00:11:05.681Z,17.00
2018-09-09T00:13:40.001Z,17.00
2018-09-09T00:16:14.292Z,17.00
2018-09-09T00:18:48.581Z,17.00
2018-09-09T00:21:22.866Z,17.00
2018-09-09T00:23:57.190Z,17.00
2018-09-09T00:26:31.485Z,16.90
2018-09-09T00:29:06.249Z,17.00
2018-09-09T00:31:40.548Z,16.90
2018-09-09T00:34:14.866Z,16.90
2018-09-09T00:36:49.216Z,16.90
2018-09-09T00:39:23.519Z,16.90
2018-09-09T00:41:57.853Z,16.90
2018-09-09T00:44:32.165Z,16.90
2018-09-09T00:47:06.489Z,16.90
2018-09-09T00:49:46.021Z,16.90
2018-09-09T00:52:25.673Z,16.90
2018-09-09T00:54:59.987Z,16.80
2018-09-09T00:57:34.310Z,16.80
2018-09-09T01:00:08.754Z,16.80
2018-09-09T01:02:43.046Z,16.80
2018-09-09T01:05:17.410Z,16.80
2018-09-09T01:07:51.770Z,16.80
2018-09-09T01:10:26.042Z,16.70
2018-09-09T01:13:00.478Z,16.70
2018-09-09T01:15:34.789Z,16.70
2018-09-09T01:18:09.090Z,16.70
2018-09-09T01:20:43.386Z,16.70
2018-09-09T01:23:17.784Z,16.60
2018-09-09T01:25:52.118Z,16.60
2018-09-09T01:28:26.470Z,16.60
2018-09-09T01:31:00.818Z,16.60
2018-09-09T01:33:35.129Z,16.60
2018-09-09T01:36:09.433Z,16.60
2018-09-09T01:38:43.725Z,16.60
2018-09-09T01:41:17.992Z,16.50
2018-09-09T01:43:52.391Z,16.50
2018-09-09T01:46:26.751Z,16.50
2018-09-09T01:49:01.131Z,16.50
2018-09-09T01:51:35.441Z,16.50
2018-09-09T01:54:09.747Z,16.50
2018-09-09T01:56:44.053Z,16.50
2018-09-09T01:59:18.348Z,16.40
2018-09-09T02:01:52.702Z,16.40
2018-09-09T02:04:26.981Z,16.40
2018-09-09T02:07:01.357Z,16.40
2018-09-09T02:09:35.646Z,16.40
2018-09-09T02:12:09.981Z,16.40
2018-09-09T02:14:44.309Z,16.30
2018-09-09T02:17:18.705Z,16.30
2018-09-09T02:19:53.016Z,16.40
2018-09-09T02:22:27.325Z,16.30
2018-09-09T02:25:01.638Z,16.30
2018-09-09T02:27:36.270Z,16.30
2018-09-09T02:30:10.671Z,16.30
2018-09-09T02:32:44.977Z,16.30
2018-09-09T02:35:19.285Z,16.20
2018-09-09T02:37:53.558Z,16.20
2018-09-09T02:40:27.909Z,16.20
2018-09-09T02:43:02.270Z,16.20
2018-09-09T02:45:36.576Z,16.20
2018-09-09T02:48:10.870Z,16.20
2018-09-09T02:50:45.179Z,16.10
2018-09-09T02:53:19.497Z,16.10
2018-09-09T02:55:53.790Z,16.10
2018-09-09T02:58:28.117Z,16.10
2018-09-09T03:01:02.407Z,16.10
2018-09-09T03:03:36.821Z,16.10
2018-09-09T03:06:11.170Z,16.10
2018-09-09T03:08:45.471Z,16.10
2018-09-09T03:11:19.767Z,16.10
2018-09-09T03:13:54.115Z,16.10
2018-09-09T03:16:28.433Z,16.10
2018-09-09T03:19:02.782Z,16.10
2018-09-09T03:21:37.111Z,16.00
2018-09-09T03:24:11.553Z,16.00
2018-09-09T03:26:45.887Z,16.00
2018-09-09T03:29:20.253Z,16.00
2018-09-09T03:31:54.523Z,15.90
2018-09-09T03:34:28.877Z,15.90
2018-09-09T03:37:03.203Z,15.80
2018-09-09T03:39:37.505Z,15.80
2018-09-09T03:42:11.874Z,15.80
2018-09-09T03:44:46.293Z,15.80
2018-09-09T03:47:20.582Z,15.80
2018-09-09T03:49:54.886Z,15.70
2018-09-09T03:52:29.302Z,15.70
2018-09-09T03:55:03.616Z,15.70
2018-09-09T03:57:37.972Z,15.70
2018-09-09T04:00:12.362Z,15.70
2018-09-09T04:02:46.710Z,15.70
2018-09-09T04:05:21.047Z,15.70
2018-09-09T04:07:55.346Z,15.70
2018-09-09T04:10:29.742Z,15.80
2018-09-09T04:13:04.066Z,15.80
2018-09-09T04:15:38.493Z,15.80
2018-09-09T04:18:12.809Z,15.80
2018-09-09T04:20:47.126Z,15.80
2018-09-09T04:23:21.442Z,15.70
2018-09-09T04:25:55.733Z,15.80
2018-09-09T04:28:30.072Z,15.80
2018-09-09T04:31:04.489Z,15.80
2018-09-09T04:33:38.814Z,15.70
2018-09-09T04:36:13.126Z,15.80
2018-09-09T04:38:47.494Z,15.80
2018-09-09T04:41:22.069Z,15.80
2018-09-09T04:43:56.449Z,15.80
2018-09-09T04:46:30.808Z,15.80
2018-09-09T04:49:05.072Z,15.80
2018-09-09T04:51:39.578Z,15.80
2018-09-09T04:54:13.953Z,15.80
2018-09-09T04:56:48.649Z,15.80
2018-09-09T04:59:22.949Z,15.80
2018-09-09T05:01:57.306Z,15.80
2018-09-09T05:04:31.626Z,15.80
2018-09-09T05:07:05.921Z,15.80
2018-09-09T05:09:40.238Z,15.80
2018-09-09T05:12:14.528Z,15.80
2018-09-09T05:14:48.835Z,15.80
2018-09-09T05:17:23.115Z,15.90
2018-09-09T05:19:58.321Z,15.90
2018-09-09T05:22:32.624Z,15.90
2018-09-09T05:25:06.983Z,16.00
2018-09-09T05:27:41.297Z,16.00
2018-09-09T05:30:15.616Z,16.00
2018-09-09T05:32:49.956Z,16.00
2018-09-09T05:35:24.291Z,16.10
2018-09-09T05:37:58.792Z,16.10
2018-09-09T05:40:33.078Z,16.10
2018-09-09T05:43:07.408Z,16.10
2018-09-09T05:45:41.693Z,16.10
2018-09-09T05:48:16.017Z,16.20
2018-09-09T05:50:50.375Z,16.20
2018-09-09T05:53:24.710Z,16.20
2018-09-09T05:55:58.978Z,16.30
2018-09-09T05:58:33.354Z,16.30
2018-09-09T06:01:07.751Z,16.40
2018-09-09T06:03:42.041Z,16.40
2018-09-09T06:06:16.343Z,16.50
2018-09-09T06:08:50.749Z,16.60
2018-09-09T06:11:25.066Z,16.60
2018-09-09T06:13:59.385Z,16.70
2018-09-09T06:16:33.908Z,16.80
2018-09-09T06:19:08.932Z,16.80
2018-09-09T06:21:43.298Z,16.90
2018-09-09T06:24:17.682Z,16.90
2018-09-09T06:26:52.001Z,17.00
2018-09-09T06:29:26.321Z,17.10
2018-09-09T06:32:00.665Z,17.20
2018-09-09T06:34:34.969Z,17.30
2018-09-09T06:37:09.278Z,17.40
2018-09-09T06:39:43.632Z,17.50
2018-09-09T06:42:17.997Z,17.60
2018-09-09T06:44:52.310Z,17.70
2018-09-09T06:47:26.618Z,17.80
2018-09-09T06:50:00.951Z,17.80
2018-09-09T06:52:35.274Z,18.00
2018-09-09T06:55:09.591Z,18.10
2018-09-09T06:57:43.974Z,18.20
2018-09-09T07:00:18.375Z,18.20
2018-09-09T07:02:52.827Z,18.30
2018-09-09T07:05:27.170Z,18.30
2018-09-09T07:08:01.486Z,18.40
2018-09-09T07:10:35.888Z,18.50
2018-09-09T07:13:10.322Z,18.60
2018-09-09T07:15:44.717Z,18.70
2018-09-09T07:18:19.123Z,18.80
2018-09-09T07:20:53.444Z,18.90
2018-09-09T07:23:27.733Z,18.90
2018-09-09T07:26:02.084Z,19.00
2018-09-09T07:28:36.406Z,19.20
2018-09-09T07:31:10.800Z,19.30
2018-09-09T07:33:46.078Z,19.40
2018-09-09T07:36:20.822Z,19.60
2018-09-09T07:38:55.287Z,19.70
2018-09-09T07:41:29.703Z,19.80
2018-09-09T07:44:04.082Z,20.00
2018-09-09T07:46:38.520Z,20.10
2018-09-09T07:49:12.921Z,20.30
2018-09-09T07:51:47.375Z,20.40
2018-09-09T07:54:21.794Z,20.60
2018-09-09T07:56:56.316Z,20.80
2018-09-09T07:59:30.718Z,20.90
2018-09-09T08:02:05.219Z,21.00
2018-09-09T08:04:39.611Z,21.20
2018-09-09T08:07:13.994Z,21.30
2018-09-09T08:09:48.398Z,21.50
2018-09-09T08:15:32.951Z,21.70
2018-09-09T08:18:07.353Z,21.80
2018-09-09T08:20:41.743Z,22.00
2018-09-09T08:23:16.225Z,22.10
2018-09-09T08:25:50.589Z,22.30
2018-09-09T08:28:43.726Z,22.40
2018-09-09T08:31:19.010Z,22.60
2018-09-09T08:33:53.553Z,22.80
2018-09-09T08:36:28.814Z,22.90
2018-09-09T08:39:03.351Z,23.10
2018-09-09T08:41:37.742Z,23.30
2018-09-09T08:44:12.154Z,23.40
2018-09-09T08:46:46.631Z,23.60
2018-09-09T08:49:21.079Z,23.70
2018-09-09T08:51:55.587Z,23.90
2018-09-09T08:54:29.875Z,24.00
2018-09-09T08:57:04.280Z,24.10
2018-09-09T08:59:38.824Z,24.20
2018-09-09T09:02:13.291Z,24.40
2018-09-09T09:04:47.728Z,24.40
2018-09-09T09:07:22.206Z,24.60
2018-09-09T09:09:56.622Z,24.70
2018-09-09T09:12:31.045Z,24.80
2018-09-09T09:15:05.514Z,24.90
2018-09-09T09:18:13.784Z,25.00
2018-09-09T09:20:48.176Z,25.10
2018-09-09T09:23:22.622Z,25.20
2018-09-09T09:25:57.087Z,25.40
2018-09-09T09:28:31.474Z,25.50
2018-09-09T09:31:06.154Z,25.60
2018-09-09T09:33:42.293Z,25.80
2018-09-09T09:36:16.973Z,25.90
2018-09-09T09:38:51.367Z,26.00
2018-09-09T09:41:25.696Z,26.20
2018-09-09T09:44:00.936Z,26.40
2018-09-09T09:46:35.458Z,26.60
2018-09-09T09:49:09.749Z,26.70
2018-09-09T09:51:44.080Z,26.80
2018-09-09T09:54:18.381Z,26.90
2018-09-09T09:56:52.690Z,27.10
2018-09-09T09:59:27.018Z,27.20
2018-09-09T10:02:01.359Z,27.30
2018-09-09T10:04:35.674Z,27.50
2018-09-09T10:07:09.966Z,27.60
2018-09-09T10:09:44.273Z,27.80
2018-09-09T10:12:18.585Z,27.90
2018-09-09T10:14:53.661Z,28.10
2018-09-09T10:17:27.970Z,28.20
2018-09-09T10:20:02.312Z,28.30
2018-09-09T10:22:36.614Z,28.50
2018-09-09T10:25:10.917Z,28.60
2018-09-09T10:27:45.258Z,28.80
2018-09-09T10:30:19.554Z,28.90
2018-09-09T10:32:53.870Z,29.10
2018-09-09T10:35:32.651Z,29.20
2018-09-09T10:38:11.985Z,29.30
2018-09-09T10:40:46.488Z,29.50
2018-09-09T10:43:20.792Z,29.50
2018-09-09T10:45:55.136Z,29.60
2018-09-09T10:48:29.471Z,29.70
2018-09-09T10:51:03.967Z,29.80
2018-09-09T10:53:38.293Z,29.90
2018-09-09T10:56:12.613Z,30.00
2018-09-09T10:58:46.967Z,30.10
2018-09-09T11:01:21.229Z,30.20
2018-09-09T11:03:55.575Z,30.30
2018-09-09T11:06:29.904Z,30.40
2018-09-09T11:09:04.858Z,30.50
2018-09-09T11:11:39.173Z,30.60
2018-09-09T11:14:13.534Z,30.70
2018-09-09T11:16:47.833Z,30.70
2018-09-09T11:19:22.256Z,30.80
2018-09-09T11:21:56.561Z,30.90
2018-09-09T11:24:30.894Z,30.90
2018-09-09T11:27:05.438Z,31.00
2018-09-09T11:29:39.754Z,31.10
2018-09-09T11:32:14.090Z,31.10
2018-09-09T11:34:48.409Z,31.10
2018-09-09T11:37:22.782Z,31.10
2018-09-09T11:39:57.114Z,31.10
2018-09-09T11:42:31.482Z,31.10
2018-09-09T11:45:05.897Z,31.10
2018-09-09T11:47:40.351Z,31.10
2018-09-09T11:50:14.755Z,31.10
2018-09-09T11:52:49.106Z,31.20
2018-09-09T11:55:23.463Z,31.20
2018-09-09T11:57:57.970Z,31.30
2018-09-09T12:00:32.317Z,31.40
2018-09-09T12:03:06.718Z,31.50
2018-09-09T12:05:41.037Z,31.60
2018-09-09T12:08:15.319Z,31.80
2018-09-09T12:10:49.631Z,31.80
2018-09-09T12:13:23.929Z,31.90
2018-09-09T12:15:58.202Z,31.90
2018-09-09T12:18:32.546Z,31.90
2018-09-09T12:21:06.951Z,32.00
2018-09-09T12:23:41.374Z,32.10
2018-09-09T12:26:15.658Z,32.10
2018-09-09T12:28:49.959Z,32.20
2018-09-09T12:31:24.379Z,32.20
2018-09-09T12:33:58.682Z,32.20
2018-09-09T12:36:33.061Z,32.10
2018-09-09T12:39:08.356Z,32.10
2018-09-09T12:41:42.678Z,32.10
2018-09-09T12:44:22.206Z,32.10
2018-09-09T12:47:01.737Z,32.10
2018-09-09T12:49:36.090Z,32.10
2018-09-09T12:52:10.542Z,32.10
2018-09-09T12:54:44.890Z,32.10
2018-09-09T12:57:19.257Z,32.00
2018-09-09T12:59:53.734Z,32.00
2018-09-09T13:02:28.251Z,31.90
2018-09-09T13:05:02.646Z,31.90
2018-09-09T13:07:37.010Z,31.80
2018-09-09T13:10:11.378Z,31.80
2018-09-09T13:12:50.814Z,31.70
2018-09-09T13:15:25.169Z,31.70
2018-09-09T13:17:59.922Z,31.70
2018-09-09T13:20:34.266Z,31.60
2018-09-09T13:23:08.641Z,31.50
2018-09-09T13:25:42.990Z,31.40
2018-09-09T13:28:17.298Z,31.30
2018-09-09T13:30:51.621Z,31.30
2018-09-09T13:33:26.265Z,31.20
2018-09-09T13:36:00.595Z,31.20
2018-09-09T13:38:35.263Z,31.10
2018-09-09T13:41:09.801Z,31.00
2018-09-09T13:43:44.170Z,30.80
2018-09-09T13:46:18.645Z,30.80
2018-09-09T13:48:53.010Z,30.80
2018-09-09T13:51:27.382Z,30.70
2018-09-09T13:54:01.687Z,30.70
2018-09-09T13:56:35.982Z,30.70
2018-09-09T13:59:10.283Z,30.70
2018-09-09T14:01:44.602Z,30.70
2018-09-09T14:04:18.905Z,30.80
2018-09-09T14:06:53.236Z,30.80
2018-09-09T14:09:27.563Z,30.80
2018-09-09T14:12:01.870Z,30.80
2018-09-09T14:14:36.169Z,30.80
2018-09-09T14:17:10.565Z,30.80
2018-09-09T14:19:44.870Z,30.80
2018-09-09T14:22:19.191Z,30.80
2018-09-09T14:24:53.694Z,30.80
2018-09-09T14:27:28.009Z,30.80
2018-09-09T14:30:02.386Z,30.90
2018-09-09T14:32:36.681Z,30.90
2018-09-09T14:35:10.986Z,30.90
2018-09-09T14:37:45.287Z,30.90
2018-09-09T14:40:19.722Z,30.90
2018-09-09T14:42:54.083Z,30.90
2018-09-09T14:45:28.401Z,31.00
2018-09-09T14:48:02.748Z,31.00
2018-09-09T14:50:37.107Z,31.10
2018-09-09T14:53:11.501Z,31.10
2018-09-09T14:55:45.870Z,31.10
2018-09-09T14:58:20.217Z,31.20
2018-09-09T15:00:54.548Z,31.30
2018-09-09T15:03:28.870Z,31.40
2018-09-09T15:06:03.182Z,31.40
2018-09-09T15:08:37.554Z,31.50
2018-09-09T15:11:11.837Z,31.50
2018-09-09T15:13:46.148Z,31.50
2018-09-09T15:16:20.486Z,31.60
2018-09-09T15:18:54.780Z,31.60
2018-09-09T15:21:29.077Z,31.60
2018-09-09T15:24:03.390Z,31.50
2018-09-09T15:26:37.746Z,31.30
2018-09-09T15:29:12.058Z,31.30
2018-09-09T15:31:46.366Z,31.20
2018-09-09T15:34:20.714Z,31.20
2018-09-09T15:36:54.975Z,31.20
2018-09-09T15:39:29.643Z,31.10
2018-09-09T15:42:04.027Z,31.20
2018-09-09T15:44:38.371Z,31.30
2018-09-09T15:47:12.702Z,31.40
2018-09-09T15:49:47.086Z,31.40
2018-09-09T15:52:21.458Z,31.50
2018-09-09T15:54:55.791Z,31.50
2018-09-09T15:57:30.128Z,31.40
2018-09-09T16:00:04.575Z,31.40
2018-09-09T16:02:38.910Z,31.20
2018-09-09T16:05:13.239Z,31.10
2018-09-09T16:07:47.563Z,31.00
2018-09-09T16:10:21.875Z,30.90
2018-09-09T16:12:56.311Z,30.70
2018-09-09T16:15:30.973Z,30.50
2018-09-09T16:18:05.399Z,30.30
2018-09-09T16:20:39.717Z,30.20
2018-09-09T16:23:14.058Z,30.00
2018-09-09T16:25:48.371Z,29.80
2018-09-09T16:28:22.701Z,29.60
2018-09-09T16:30:57.030Z,29.50
2018-09-09T16:33:31.321Z,29.30
2018-09-09T16:36:05.649Z,29.20
2018-09-09T16:38:39.958Z,29.00
2018-09-09T16:41:14.275Z,28.90
2018-09-09T16:43:48.719Z,28.70
2018-09-09T16:46:22.971Z,28.60
2018-09-09T16:48:57.313Z,28.40
2018-09-09T16:51:31.697Z,28.30
2018-09-09T16:54:06.074Z,28.20
2018-09-09T16:56:41.485Z,28.10
2018-09-09T16:59:15.830Z,28.00
2018-09-09T17:01:50.192Z,27.80
2018-09-09T17:04:24.515Z,27.70
2018-09-09T17:06:58.838Z,27.60
2018-09-09T17:09:33.206Z,27.50
2018-09-09T17:12:07.519Z,27.40
2018-09-09T17:14:41.824Z,27.30
2018-09-09T17:17:16.154Z,27.10
2018-09-09T17:19:50.475Z,27.10
2018-09-09T17:22:24.814Z,26.90
2018-09-09T17:24:59.172Z,26.80
2018-09-09T17:27:33.489Z,26.70
2018-09-09T17:30:07.913Z,26.60
2018-09-09T17:32:42.337Z,26.40
2018-09-09T17:35:16.770Z,26.30
2018-09-09T17:37:51.154Z,26.20
2018-09-09T17:40:34.985Z,26.10
2018-09-09T17:43:09.361Z,26.00
2018-09-09T17:45:44.796Z,25.80
2018-09-09T17:48:19.169Z,25.70
2018-09-09T17:50:53.516Z,25.60
2018-09-09T17:53:27.851Z,25.50
2018-09-09T17:56:02.168Z,25.40
2018-09-09T17:58:36.498Z,25.20
2018-09-09T18:01:10.811Z,25.10
2018-09-09T18:03:45.349Z,24.90
2018-09-09T18:06:19.747Z,24.80
2018-09-09T18:08:54.139Z,24.60
2018-09-09T18:11:29.378Z,24.50
2018-09-09T18:14:03.737Z,24.40
2018-09-09T18:16:40.447Z,24.20
2018-09-09T18:19:16.678Z,24.10
2018-09-09T18:21:51.299Z,24.00
2018-09-09T18:24:25.704Z,23.90
2018-09-09T18:27:00.123Z,23.80
2018-09-09T18:29:34.587Z,23.60
2018-09-09T18:32:08.970Z,23.50
2018-09-09T18:34:43.300Z,23.40
2018-09-09T18:37:17.666Z,23.30
2018-09-09T18:39:52.073Z,23.10
2018-09-09T18:42:26.485Z,23.00
2018-09-09T18:45:00.852Z,22.90
2018-09-09T18:47:35.298Z,22.80
2018-09-09T18:50:09.697Z,22.70
2018-09-09T18:52:44.070Z,22.60
2018-09-09T18:55:18.458Z,22.50
2018-09-09T18:57:53.088Z,22.40
2018-09-09T19:00:27.433Z,22.30
2018-09-09T19:03:01.858Z,22.30
2018-09-09T19:05:36.262Z,22.20
2018-09-09T19:08:10.662Z,22.20
2018-09-09T19:10:45.004Z,22.10
2018-09-09T19:13:19.360Z,22.00
2018-09-09T19:15:54.411Z,21.90
2018-09-09T19:18:28.780Z,21.80
2018-09-09T19:21:03.554Z,21.80
2018-09-09T19:23:37.928Z,21.70
2018-09-09T19:26:12.321Z,21.60
2018-09-09T19:28:47.561Z,21.60
2018-09-09T19:31:22.190Z,21.50
2018-09-09T19:33:56.598Z,21.40
2018-09-09T19:36:31.042Z,21.40
2018-09-09T19:39:08.258Z,21.30
2018-09-09T19:41:43.664Z,21.20
2018-09-09T19:44:18.399Z,21.20
2018-09-09T19:46:52.847Z,21.10
2018-09-09T19:49:27.286Z,21.00
2018-09-09T19:52:01.725Z,20.90
2018-09-09T19:54:36.190Z,20.90
2018-09-09T19:57:10.650Z,20.80
2018-09-09T19:59:45.094Z,20.80
2018-09-09T20:02:19.506Z,20.70
2018-09-09T20:04:54.325Z,20.70
2018-09-09T20:07:28.939Z,20.60
2018-09-09T20:10:03.642Z,20.60
2018-09-09T20:12:38.812Z,20.50
2018-09-09T20:15:13.301Z,20.40
2018-09-09T20:17:47.675Z,20.30
2018-09-09T20:20:22.062Z,20.30
2018-09-09T20:22:56.517Z,20.20
2018-09-09T20:25:30.931Z,20.20
2018-09-09T20:28:05.488Z,20.10
2018-09-09T20:30:40.279Z,20.10
2018-09-09T20:33:14.752Z,20.00
2018-09-09T20:35:49.961Z,20.00
2018-09-09T20:38:24.446Z,19.90
2018-09-09T20:40:58.938Z,19.90
2018-09-09T20:43:34.242Z,19.80
2018-09-09T20:46:08.974Z,19.70
2018-09-09T20:48:43.378Z,19.70
2018-09-09T20:51:17.890Z,19.70
2018-09-09T20:53:52.482Z,19.60
2018-09-09T20:56:27.072Z,19.60
2018-09-09T20:59:02.443Z,19.60
2018-09-09T21:01:36.962Z,19.50
2018-09-09T21:04:11.575Z,19.50
2018-09-09T21:06:47.618Z,19.40
2018-09-09T21:09:22.097Z,19.40
2018-09-09T21:11:56.930Z,19.40
2018-09-09T21:14:31.312Z,19.40
2018-09-09T21:17:06.607Z,19.40
2018-09-09T21:19:40.969Z,19.30
2018-09-09T21:22:15.343Z,19.30
2018-09-09T21:24:49.747Z,19.30
2018-09-09T21:27:25.268Z,19.20
2018-09-09T21:29:59.681Z,19.20
2018-09-09T21:32:34.111Z,19.20
2018-09-09T21:35:08.480Z,19.10
2018-09-09T21:37:42.998Z,19.10
2018-09-09T21:40:17.417Z,19.10
2018-09-09T21:42:52.315Z,19.00
2018-09-09T21:45:26.858Z,19.00
2018-09-09T21:48:03.967Z,18.90
2018-09-09T21:50:38.374Z,18.90
2018-09-09T21:53:12.934Z,18.80
2018-09-09T21:55:47.916Z,18.80
2018-09-09T21:58:22.841Z,18.80
2018-09-09T22:01:03.567Z,18.70
2018-09-09T22:03:38.728Z,18.70
2018-09-09T22:06:13.153Z,18.60
2018-09-09T22:08:47.564Z,18.60
2018-09-09T22:11:23.548Z,18.60
2018-09-09T22:13:59.589Z,18.60
2018-09-09T22:16:34.039Z,18.60
2018-09-09T22:19:09.555Z,18.60
2018-09-09T22:21:44.024Z,18.60
2018-09-09T22:24:20.701Z,18.60
2018-09-09T22:26:55.089Z,18.50
2018-09-09T22:29:30.455Z,18.60
2018-09-09T22:32:05.577Z,18.50
2018-09-09T22:34:40.043Z,18.50
2018-09-09T22:37:14.410Z,18.50
2018-09-09T22:39:49.708Z,18.50
2018-09-09T22:42:26.174Z,18.50
2018-09-09T22:45:01.123Z,18.40
2018-09-09T22:47:35.759Z,18.40
2018-09-09T22:50:10.803Z,18.40
2018-09-09T22:52:45.205Z,18.30
2018-09-09T22:55:20.309Z,18.30
2018-09-09T22:57:55.365Z,18.30
2018-09-09T23:00:31.458Z,18.20
2018-09-09T23:03:06.258Z,18.20
2018-09-09T23:05:41.476Z,18.20
2018-09-09T23:08:16.135Z,18.20
2018-09-09T23:10:51.756Z,18.20
2018-09-09T23:13:26.818Z,18.10
2018-09-09T23:16:02.943Z,18.10
2018-09-09T23:18:37.985Z,18.10
2018-09-09T23:21:15.255Z,18.10
2018-09-09T23:23:50.669Z,18.00
2018-09-09T23:26:25.086Z,18.00
2018-09-09T23:28:59.582Z,18.00
2018-09-09T23:31:34.021Z,18.00
2018-09-09T23:34:09.425Z,17.90
2018-09-09T23:36:43.943Z,17.90
2018-09-09T23:39:19.213Z,17.90
2018-09-09T23:41:53.728Z,17.90
2018-09-09T23:44:30.111Z,17.90
2018-09-09T23:47:04.632Z,17.90
2018-09-09T23:49:39.694Z,17.80
2018-09-09T23:52:14.333Z,17.80
2018-09-09T23:54:49.404Z,17.80
2018-09-09T23:57:24.606Z,17.80
